sensor_id;sensor_type;location;lat;lon;timestamp;P1;durP1;ratioP1;P2;durP2;ratioP2
12663;SDS011;6396;58.490;15.528;2022-11-20T00:01:24;3.47;;;3.17;;
12663;SDS011;6396;58.490;15.528;2022-11-20T00:03:51;3.23;;;2.90;;
12663;SDS011;6396;58.490;15.528;2022-11-20T00:06:22;3.20;;;2.90;;
12663;SDS011;6396;58.490;15.528;2022-11-20T00:08:49;4.13;;;2.90;;
12663;SDS011;6396;58.490;15.528;2022-11-20T00:11:18;3.40;;;2.73;;
12663;SDS011;6396;58.490;15.528;2022-11-20T00:13:45;3.27;;;2.80;;
12663;SDS011;6396;58.490;15.528;2022-11-20T00:16:14;3.10;;;2.80;;
12663;SDS011;6396;58.490;15.528;2022-11-20T00:18:42;3.13;;;2.80;;
12663;SDS011;6396;58.490;15.528;2022-11-20T00:21:11;4.13;;;3.17;;
12663;SDS011;6396;58.490;15.528;2022-11-20T00:23:41;3.00;;;2.70;;
12663;SDS011;6396;58.490;15.528;2022-11-20T00:26:09;4.50;;;3.27;;
12663;SDS011;6396;58.490;15.528;2022-11-20T00:28:38;3.17;;;2.77;;
12663;SDS011;6396;58.490;15.528;2022-11-20T00:31:05;3.87;;;3.27;;
12663;SDS011;6396;58.490;15.528;2022-11-20T00:33:33;3.33;;;3.03;;
12663;SDS011;6396;58.490;15.528;2022-11-20T00:36:00;3.23;;;2.97;;
12663;SDS011;6396;58.490;15.528;2022-11-20T00:38:28;3.53;;;3.23;;
12663;SDS011;6396;58.490;15.528;2022-11-20T00:40:58;4.40;;;3.23;;
12663;SDS011;6396;58.490;15.528;2022-11-20T00:43:25;3.97;;;3.13;;
12663;SDS011;6396;58.490;15.528;2022-11-20T00:45:56;4.07;;;2.97;;
12663;SDS011;6396;58.490;15.528;2022-11-20T00:48:23;3.57;;;2.60;;
12663;SDS011;6396;58.490;15.528;2022-11-20T00:50:50;2.57;;;2.37;;
12663;SDS011;6396;58.490;15.528;2022-11-20T00:53:17;3.30;;;2.97;;
12663;SDS011;6396;58.490;15.528;2022-11-20T00:55:51;3.57;;;2.83;;
12663;SDS011;6396;58.490;15.528;2022-11-20T00:58:20;3.07;;;2.77;;
12663;SDS011;6396;58.490;15.528;2022-11-20T01:00:47;2.80;;;2.60;;
12663;SDS011;6396;58.490;15.528;2022-11-20T01:03:15;3.00;;;2.70;;
12663;SDS011;6396;58.490;15.528;2022-11-20T01:05:42;3.53;;;3.07;;
12663;SDS011;6396;58.490;15.528;2022-11-20T01:08:09;3.63;;;3.10;;
12663;SDS011;6396;58.490;15.528;2022-11-20T01:10:36;4.37;;;2.97;;
12663;SDS011;6396;58.490;15.528;2022-11-20T01:13:03;3.67;;;2.97;;
12663;SDS011;6396;58.490;15.528;2022-11-20T01:15:49;3.17;;;2.73;;
12663;SDS011;6396;58.490;15.528;2022-11-20T01:18:15;2.93;;;2.63;;
12663;SDS011;6396;58.490;15.528;2022-11-20T01:20:42;3.30;;;2.77;;
12663;SDS011;6396;58.490;15.528;2022-11-20T01:23:09;2.83;;;2.57;;
12663;SDS011;6396;58.490;15.528;2022-11-20T01:25:36;3.17;;;2.87;;
12663;SDS011;6396;58.490;15.528;2022-11-20T01:28:02;3.10;;;2.80;;
12663;SDS011;6396;58.490;15.528;2022-11-20T01:30:29;2.97;;;2.77;;
12663;SDS011;6396;58.490;15.528;2022-11-20T01:32:57;4.57;;;2.90;;
12663;SDS011;6396;58.490;15.528;2022-11-20T01:35:25;2.80;;;2.60;;
12663;SDS011;6396;58.490;15.528;2022-11-20T01:37:51;2.50;;;2.30;;
12663;SDS011;6396;58.490;15.528;2022-11-20T01:40:18;3.43;;;2.43;;
12663;SDS011;6396;58.490;15.528;2022-11-20T01:42:47;3.07;;;2.13;;
12663;SDS011;6396;58.490;15.528;2022-11-20T01:45:47;3.23;;;2.67;;
12663;SDS011;6396;58.490;15.528;2022-11-20T01:48:25;2.67;;;2.47;;
12663;SDS011;6396;58.490;15.528;2022-11-20T01:50:55;2.50;;;2.30;;
12663;SDS011;6396;58.490;15.528;2022-11-20T01:53:25;2.80;;;2.20;;
12663;SDS011;6396;58.490;15.528;2022-11-20T01:55:57;3.13;;;2.33;;
12663;SDS011;6396;58.490;15.528;2022-11-20T01:58:27;3.27;;;2.70;;
12663;SDS011;6396;58.490;15.528;2022-11-20T02:00:59;2.67;;;2.47;;
12663;SDS011;6396;58.490;15.528;2022-11-20T02:03:27;2.93;;;2.60;;
12663;SDS011;6396;58.490;15.528;2022-11-20T02:05:55;3.00;;;2.70;;
12663;SDS011;6396;58.490;15.528;2022-11-20T02:08:28;2.90;;;2.70;;
12663;SDS011;6396;58.490;15.528;2022-11-20T02:10:56;3.53;;;2.73;;
12663;SDS011;6396;58.490;15.528;2022-11-20T02:13:23;2.97;;;2.50;;
12663;SDS011;6396;58.490;15.528;2022-11-20T02:16:08;3.23;;;2.67;;
12663;SDS011;6396;58.490;15.528;2022-11-20T02:18:39;3.13;;;2.43;;
12663;SDS011;6396;58.490;15.528;2022-11-20T02:21:07;3.33;;;2.50;;
12663;SDS011;6396;58.490;15.528;2022-11-20T02:26:31;3.17;;;2.63;;
12663;SDS011;6396;58.490;15.528;2022-11-20T02:29:01;4.07;;;3.10;;
12663;SDS011;6396;58.490;15.528;2022-11-20T02:31:30;2.70;;;2.40;;
12663;SDS011;6396;58.490;15.528;2022-11-20T02:34:02;2.60;;;2.40;;
12663;SDS011;6396;58.490;15.528;2022-11-20T02:36:29;3.03;;;2.10;;
12663;SDS011;6396;58.490;15.528;2022-11-20T02:38:58;2.80;;;2.50;;
12663;SDS011;6396;58.490;15.528;2022-11-20T02:41:31;3.60;;;2.47;;
12663;SDS011;6396;58.490;15.528;2022-11-20T02:43:59;3.50;;;2.60;;
12663;SDS011;6396;58.490;15.528;2022-11-20T02:46:26;2.63;;;2.43;;
12663;SDS011;6396;58.490;15.528;2022-11-20T02:48:52;2.93;;;2.60;;
12663;SDS011;6396;58.490;15.528;2022-11-20T02:51:19;2.70;;;2.37;;
12663;SDS011;6396;58.490;15.528;2022-11-20T02:53:46;4.17;;;2.67;;
12663;SDS011;6396;58.490;15.528;2022-11-20T02:56:13;4.57;;;2.50;;
12663;SDS011;6396;58.490;15.528;2022-11-20T02:58:41;2.40;;;2.20;;
12663;SDS011;6396;58.490;15.528;2022-11-20T03:01:08;2.13;;;1.93;;
12663;SDS011;6396;58.490;15.528;2022-11-20T03:03:35;2.27;;;2.10;;
12663;SDS011;6396;58.490;15.528;2022-11-20T03:06:01;2.80;;;2.30;;
12663;SDS011;6396;58.490;15.528;2022-11-20T03:08:29;2.57;;;2.37;;
12663;SDS011;6396;58.490;15.528;2022-11-20T03:10:55;2.53;;;2.33;;
12663;SDS011;6396;58.490;15.528;2022-11-20T03:13:22;2.73;;;2.37;;
12663;SDS011;6396;58.490;15.528;2022-11-20T03:15:52;2.37;;;2.17;;
12663;SDS011;6396;58.490;15.528;2022-11-20T03:18:19;2.93;;;2.53;;
12663;SDS011;6396;58.490;15.528;2022-11-20T03:20:46;2.73;;;2.33;;
12663;SDS011;6396;58.490;15.528;2022-11-20T03:23:13;2.30;;;2.10;;
12663;SDS011;6396;58.490;15.528;2022-11-20T03:25:39;2.77;;;2.40;;
12663;SDS011;6396;58.490;15.528;2022-11-20T03:28:06;2.70;;;2.50;;
12663;SDS011;6396;58.490;15.528;2022-11-20T03:30:33;2.57;;;2.20;;
12663;SDS011;6396;58.490;15.528;2022-11-20T03:33:02;2.60;;;2.40;;
12663;SDS011;6396;58.490;15.528;2022-11-20T03:35:29;2.23;;;2.03;;
12663;SDS011;6396;58.490;15.528;2022-11-20T03:37:56;2.53;;;2.27;;
12663;SDS011;6396;58.490;15.528;2022-11-20T03:40:23;2.50;;;2.30;;
12663;SDS011;6396;58.490;15.528;2022-11-20T03:42:50;3.27;;;2.40;;
12663;SDS011;6396;58.490;15.528;2022-11-20T03:45:17;4.53;;;2.40;;
12663;SDS011;6396;58.490;15.528;2022-11-20T03:47:45;3.00;;;2.50;;
12663;SDS011;6396;58.490;15.528;2022-11-20T03:50:13;3.33;;;2.50;;
12663;SDS011;6396;58.490;15.528;2022-11-20T03:52:40;3.60;;;2.40;;
12663;SDS011;6396;58.490;15.528;2022-11-20T03:55:07;3.00;;;2.30;;
12663;SDS011;6396;58.490;15.528;2022-11-20T03:57:34;3.50;;;2.30;;
12663;SDS011;6396;58.490;15.528;2022-11-20T04:00:01;2.30;;;2.10;;
12663;SDS011;6396;58.490;15.528;2022-11-20T04:02:29;2.63;;;2.43;;
12663;SDS011;6396;58.490;15.528;2022-11-20T04:04:56;2.23;;;2.10;;
12663;SDS011;6396;58.490;15.528;2022-11-20T04:07:24;2.90;;;2.60;;
12663;SDS011;6396;58.490;15.528;2022-11-20T04:09:51;3.37;;;2.37;;
12663;SDS011;6396;58.490;15.528;2022-11-20T04:12:18;2.40;;;2.20;;
12663;SDS011;6396;58.490;15.528;2022-11-20T04:14:44;3.70;;;2.37;;
12663;SDS011;6396;58.490;15.528;2022-11-20T04:17:11;3.70;;;2.33;;
12663;SDS011;6396;58.490;15.528;2022-11-20T04:19:38;2.70;;;2.47;;
12663;SDS011;6396;58.490;15.528;2022-11-20T04:22:05;2.63;;;2.10;;
12663;SDS011;6396;58.490;15.528;2022-11-20T04:24:33;2.53;;;2.33;;
12663;SDS011;6396;58.490;15.528;2022-11-20T04:27:00;2.50;;;2.30;;
12663;SDS011;6396;58.490;15.528;2022-11-20T04:29:26;2.30;;;2.10;;
12663;SDS011;6396;58.490;15.528;2022-11-20T04:31:53;2.30;;;2.10;;
12663;SDS011;6396;58.490;15.528;2022-11-20T04:34:20;2.50;;;2.30;;
12663;SDS011;6396;58.490;15.528;2022-11-20T04:36:47;3.07;;;2.33;;
12663;SDS011;6396;58.490;15.528;2022-11-20T04:39:14;2.47;;;1.97;;
12663;SDS011;6396;58.490;15.528;2022-11-20T04:41:43;3.10;;;2.47;;
12663;SDS011;6396;58.490;15.528;2022-11-20T04:44:10;2.50;;;2.20;;
12663;SDS011;6396;58.490;15.528;2022-11-20T04:46:38;2.47;;;2.17;;
12663;SDS011;6396;58.490;15.528;2022-11-20T04:49:06;3.00;;;2.60;;
12663;SDS011;6396;58.490;15.528;2022-11-20T04:51:33;2.80;;;2.00;;
12663;SDS011;6396;58.490;15.528;2022-11-20T04:54:00;2.50;;;2.30;;
12663;SDS011;6396;58.490;15.528;2022-11-20T04:56:28;2.40;;;2.07;;
12663;SDS011;6396;58.490;15.528;2022-11-20T04:58:56;2.53;;;2.20;;
12663;SDS011;6396;58.490;15.528;2022-11-20T05:01:26;2.77;;;2.30;;
12663;SDS011;6396;58.490;15.528;2022-11-20T05:03:53;2.50;;;2.27;;
12663;SDS011;6396;58.490;15.528;2022-11-20T05:06:20;2.50;;;2.30;;
12663;SDS011;6396;58.490;15.528;2022-11-20T05:08:48;2.70;;;2.50;;
12663;SDS011;6396;58.490;15.528;2022-11-20T05:11:15;2.40;;;2.17;;
12663;SDS011;6396;58.490;15.528;2022-11-20T05:13:43;2.83;;;2.47;;
12663;SDS011;6396;58.490;15.528;2022-11-20T05:16:12;3.00;;;2.20;;
12663;SDS011;6396;58.490;15.528;2022-11-20T05:18:40;2.50;;;2.30;;
12663;SDS011;6396;58.490;15.528;2022-11-20T05:21:08;3.07;;;2.13;;
12663;SDS011;6396;58.490;15.528;2022-11-20T05:23:35;2.40;;;2.17;;
12663;SDS011;6396;58.490;15.528;2022-11-20T05:26:03;3.23;;;2.23;;
12663;SDS011;6396;58.490;15.528;2022-11-20T05:28:31;2.77;;;2.50;;
12663;SDS011;6396;58.490;15.528;2022-11-20T05:31:03;2.50;;;2.30;;
12663;SDS011;6396;58.490;15.528;2022-11-20T05:33:32;3.17;;;2.73;;
12663;SDS011;6396;58.490;15.528;2022-11-20T05:35:59;2.50;;;2.30;;
12663;SDS011;6396;58.490;15.528;2022-11-20T05:38:26;2.60;;;2.40;;
12663;SDS011;6396;58.490;15.528;2022-11-20T05:40:53;2.50;;;2.30;;
12663;SDS011;6396;58.490;15.528;2022-11-20T05:43:20;3.63;;;2.17;;
12663;SDS011;6396;58.490;15.528;2022-11-20T05:45:51;2.27;;;2.03;;
12663;SDS011;6396;58.490;15.528;2022-11-20T05:48:19;3.77;;;2.37;;
12663;SDS011;6396;58.490;15.528;2022-11-20T05:50:47;2.90;;;2.30;;
12663;SDS011;6396;58.490;15.528;2022-11-20T05:53:14;2.27;;;2.03;;
12663;SDS011;6396;58.490;15.528;2022-11-20T05:55:40;2.50;;;2.30;;
12663;SDS011;6396;58.490;15.528;2022-11-20T05:58:07;2.57;;;2.30;;
12663;SDS011;6396;58.490;15.528;2022-11-20T06:00:34;3.90;;;2.30;;
12663;SDS011;6396;58.490;15.528;2022-11-20T06:03:01;3.03;;;2.27;;
12663;SDS011;6396;58.490;15.528;2022-11-20T06:05:28;2.57;;;2.33;;
12663;SDS011;6396;58.490;15.528;2022-11-20T06:07:56;2.67;;;2.00;;
12663;SDS011;6396;58.490;15.528;2022-11-20T06:10:23;2.70;;;2.40;;
12663;SDS011;6396;58.490;15.528;2022-11-20T06:12:50;2.47;;;2.00;;
12663;SDS011;6396;58.490;15.528;2022-11-20T06:15:17;3.27;;;2.60;;
12663;SDS011;6396;58.490;15.528;2022-11-20T06:17:43;2.90;;;1.87;;
12663;SDS011;6396;58.490;15.528;2022-11-20T06:20:10;2.40;;;2.20;;
12663;SDS011;6396;58.490;15.528;2022-11-20T06:22:37;2.47;;;2.27;;
12663;SDS011;6396;58.490;15.528;2022-11-20T06:25:05;2.27;;;2.07;;
12663;SDS011;6396;58.490;15.528;2022-11-20T06:27:32;2.27;;;2.07;;
12663;SDS011;6396;58.490;15.528;2022-11-20T06:29:59;2.60;;;2.10;;
12663;SDS011;6396;58.490;15.528;2022-11-20T06:32:26;2.40;;;2.20;;
12663;SDS011;6396;58.490;15.528;2022-11-20T06:34:53;2.50;;;2.30;;
12663;SDS011;6396;58.490;15.528;2022-11-20T06:37:20;3.00;;;1.93;;
12663;SDS011;6396;58.490;15.528;2022-11-20T06:39:46;3.67;;;2.17;;
12663;SDS011;6396;58.490;15.528;2022-11-20T06:42:15;2.50;;;2.17;;
12663;SDS011;6396;58.490;15.528;2022-11-20T06:44:41;2.10;;;1.90;;
12663;SDS011;6396;58.490;15.528;2022-11-20T06:47:08;4.47;;;2.20;;
12663;SDS011;6396;58.490;15.528;2022-11-20T06:49:35;2.47;;;2.07;;
12663;SDS011;6396;58.490;15.528;2022-11-20T06:52:03;2.43;;;2.03;;
12663;SDS011;6396;58.490;15.528;2022-11-20T06:54:30;2.30;;;1.87;;
12663;SDS011;6396;58.490;15.528;2022-11-20T06:56:57;2.30;;;2.03;;
12663;SDS011;6396;58.490;15.528;2022-11-20T06:59:25;2.20;;;1.90;;
12663;SDS011;6396;58.490;15.528;2022-11-20T07:01:52;1.97;;;1.80;;
12663;SDS011;6396;58.490;15.528;2022-11-20T07:04:18;2.67;;;1.90;;
12663;SDS011;6396;58.490;15.528;2022-11-20T07:06:45;2.63;;;2.20;;
12663;SDS011;6396;58.490;15.528;2022-11-20T07:09:12;2.33;;;2.13;;
12663;SDS011;6396;58.490;15.528;2022-11-20T07:11:39;2.20;;;1.97;;
12663;SDS011;6396;58.490;15.528;2022-11-20T07:14:05;2.20;;;2.00;;
12663;SDS011;6396;58.490;15.528;2022-11-20T07:16:34;2.00;;;1.80;;
12663;SDS011;6396;58.490;15.528;2022-11-20T07:19:01;2.77;;;2.00;;
12663;SDS011;6396;58.490;15.528;2022-11-20T07:21:27;1.90;;;1.70;;
12663;SDS011;6396;58.490;15.528;2022-11-20T07:23:54;2.30;;;1.60;;
12663;SDS011;6396;58.490;15.528;2022-11-20T07:26:21;2.10;;;1.90;;
12663;SDS011;6396;58.490;15.528;2022-11-20T07:28:48;1.90;;;1.80;;
12663;SDS011;6396;58.490;15.528;2022-11-20T07:31:14;1.70;;;1.60;;
12663;SDS011;6396;58.490;15.528;2022-11-20T07:33:44;2.20;;;2.00;;
12663;SDS011;6396;58.490;15.528;2022-11-20T07:36:11;1.77;;;1.67;;
12663;SDS011;6396;58.490;15.528;2022-11-20T07:38:39;2.37;;;1.80;;
12663;SDS011;6396;58.490;15.528;2022-11-20T07:41:06;3.13;;;1.73;;
12663;SDS011;6396;58.490;15.528;2022-11-20T07:43:33;2.50;;;1.97;;
12663;SDS011;6396;58.490;15.528;2022-11-20T07:46:14;3.73;;;1.80;;
12663;SDS011;6396;58.490;15.528;2022-11-20T07:48:40;2.03;;;1.83;;
12663;SDS011;6396;58.490;15.528;2022-11-20T07:51:09;2.10;;;1.93;;
12663;SDS011;6396;58.490;15.528;2022-11-20T07:53:36;2.00;;;1.80;;
12663;SDS011;6396;58.490;15.528;2022-11-20T07:56:03;2.00;;;1.80;;
12663;SDS011;6396;58.490;15.528;2022-11-20T07:58:30;2.23;;;2.03;;
12663;SDS011;6396;58.490;15.528;2022-11-20T08:00:58;2.20;;;2.00;;
12663;SDS011;6396;58.490;15.528;2022-11-20T08:03:28;2.00;;;1.80;;
12663;SDS011;6396;58.490;15.528;2022-11-20T08:05:56;2.03;;;1.83;;
12663;SDS011;6396;58.490;15.528;2022-11-20T08:08:25;2.20;;;2.00;;
12663;SDS011;6396;58.490;15.528;2022-11-20T08:10:51;2.80;;;1.87;;
12663;SDS011;6396;58.490;15.528;2022-11-20T08:13:38;3.40;;;2.00;;
12663;SDS011;6396;58.490;15.528;2022-11-20T08:16:22;1.83;;;1.70;;
12663;SDS011;6396;58.490;15.528;2022-11-20T08:18:49;2.13;;;1.93;;
12663;SDS011;6396;58.490;15.528;2022-11-20T08:21:17;2.27;;;2.07;;
12663;SDS011;6396;58.490;15.528;2022-11-20T08:23:44;1.90;;;1.80;;
12663;SDS011;6396;58.490;15.528;2022-11-20T08:26:11;2.20;;;2.00;;
12663;SDS011;6396;58.490;15.528;2022-11-20T08:28:38;2.30;;;2.10;;
12663;SDS011;6396;58.490;15.528;2022-11-20T08:31:05;2.83;;;2.00;;
12663;SDS011;6396;58.490;15.528;2022-11-20T08:33:32;1.90;;;1.80;;
12663;SDS011;6396;58.490;15.528;2022-11-20T08:35:59;2.10;;;1.90;;
12663;SDS011;6396;58.490;15.528;2022-11-20T08:38:28;2.00;;;1.90;;
12663;SDS011;6396;58.490;15.528;2022-11-20T08:40:56;2.10;;;1.90;;
12663;SDS011;6396;58.490;15.528;2022-11-20T08:43:41;2.27;;;2.07;;
12663;SDS011;6396;58.490;15.528;2022-11-20T08:46:07;2.00;;;1.73;;
12663;SDS011;6396;58.490;15.528;2022-11-20T08:48:34;1.93;;;1.73;;
12663;SDS011;6396;58.490;15.528;2022-11-20T08:51:01;1.80;;;1.67;;
12663;SDS011;6396;58.490;15.528;2022-11-20T08:53:30;2.93;;;1.70;;
12663;SDS011;6396;58.490;15.528;2022-11-20T08:55:57;1.80;;;1.70;;
12663;SDS011;6396;58.490;15.528;2022-11-20T08:58:24;2.10;;;1.90;;
12663;SDS011;6396;58.490;15.528;2022-11-20T09:00:51;1.80;;;1.70;;
12663;SDS011;6396;58.490;15.528;2022-11-20T09:03:18;1.80;;;1.70;;
12663;SDS011;6396;58.490;15.528;2022-11-20T09:05:45;2.10;;;1.80;;
12663;SDS011;6396;58.490;15.528;2022-11-20T09:08:12;2.33;;;1.80;;
12663;SDS011;6396;58.490;15.528;2022-11-20T09:10:40;1.73;;;1.63;;
12663;SDS011;6396;58.490;15.528;2022-11-20T09:13:07;2.30;;;1.87;;
12663;SDS011;6396;58.490;15.528;2022-11-20T09:15:34;1.60;;;1.50;;
12663;SDS011;6396;58.490;15.528;2022-11-20T09:18:01;1.63;;;1.53;;
12663;SDS011;6396;58.490;15.528;2022-11-20T09:20:29;1.80;;;1.63;;
12663;SDS011;6396;58.490;15.528;2022-11-20T09:22:57;1.60;;;1.47;;
12663;SDS011;6396;58.490;15.528;2022-11-20T09:25:24;1.87;;;1.67;;
12663;SDS011;6396;58.490;15.528;2022-11-20T09:27:56;1.73;;;1.57;;
12663;SDS011;6396;58.490;15.528;2022-11-20T09:30:23;1.40;;;1.30;;
12663;SDS011;6396;58.490;15.528;2022-11-20T09:32:50;1.60;;;1.50;;
12663;SDS011;6396;58.490;15.528;2022-11-20T09:35:17;1.60;;;1.50;;
12663;SDS011;6396;58.490;15.528;2022-11-20T09:37:44;1.60;;;1.50;;
12663;SDS011;6396;58.490;15.528;2022-11-20T09:40:16;1.83;;;1.60;;
12663;SDS011;6396;58.490;15.528;2022-11-20T09:42:47;2.30;;;1.83;;
12663;SDS011;6396;58.490;15.528;2022-11-20T09:45:28;2.20;;;1.77;;
12663;SDS011;6396;58.490;15.528;2022-11-20T09:48:16;1.97;;;1.50;;
12663;SDS011;6396;58.490;15.528;2022-11-20T09:50:52;3.53;;;1.60;;
12663;SDS011;6396;58.490;15.528;2022-11-20T09:53:27;2.63;;;1.80;;
12663;SDS011;6396;58.490;15.528;2022-11-20T09:56:01;2.23;;;1.53;;
12663;SDS011;6396;58.490;15.528;2022-11-20T09:58:31;1.83;;;1.63;;
12663;SDS011;6396;58.490;15.528;2022-11-20T10:01:05;1.87;;;1.13;;
12663;SDS011;6396;58.490;15.528;2022-11-20T10:03:40;1.87;;;1.50;;
12663;SDS011;6396;58.490;15.528;2022-11-20T10:06:16;1.63;;;1.53;;
12663;SDS011;6396;58.490;15.528;2022-11-20T10:08:49;1.73;;;1.43;;
12663;SDS011;6396;58.490;15.528;2022-11-20T10:11:23;1.93;;;1.73;;
12663;SDS011;6396;58.490;15.528;2022-11-20T10:13:57;1.60;;;1.47;;
12663;SDS011;6396;58.490;15.528;2022-11-20T10:16:36;2.30;;;1.40;;
12663;SDS011;6396;58.490;15.528;2022-11-20T10:19:14;1.97;;;1.73;;
12663;SDS011;6396;58.490;15.528;2022-11-20T10:21:57;1.60;;;1.40;;
12663;SDS011;6396;58.490;15.528;2022-11-20T10:24:37;1.50;;;1.40;;
12663;SDS011;6396;58.490;15.528;2022-11-20T10:27:14;1.50;;;1.37;;
12663;SDS011;6396;58.490;15.528;2022-11-20T10:29:59;1.50;;;1.40;;
12663;SDS011;6396;58.490;15.528;2022-11-20T10:32:31;1.60;;;1.50;;
12663;SDS011;6396;58.490;15.528;2022-11-20T10:35:04;1.60;;;1.50;;
12663;SDS011;6396;58.490;15.528;2022-11-20T10:37:41;1.50;;;1.40;;
12663;SDS011;6396;58.490;15.528;2022-11-20T10:40:17;1.40;;;1.30;;
12663;SDS011;6396;58.490;15.528;2022-11-20T10:42:49;1.40;;;1.30;;
12663;SDS011;6396;58.490;15.528;2022-11-20T10:45:29;1.47;;;1.37;;
12663;SDS011;6396;58.490;15.528;2022-11-20T10:48:14;1.47;;;1.17;;
12663;SDS011;6396;58.490;15.528;2022-11-20T10:53:48;1.97;;;1.70;;
12663;SDS011;6396;58.490;15.528;2022-11-20T10:56:25;2.20;;;1.67;;
12663;SDS011;6396;58.490;15.528;2022-11-20T10:59:03;2.20;;;1.40;;
12663;SDS011;6396;58.490;15.528;2022-11-20T11:01:40;1.90;;;1.70;;
12663;SDS011;6396;58.490;15.528;2022-11-20T11:04:14;1.50;;;1.40;;
12663;SDS011;6396;58.490;15.528;2022-11-20T11:06:56;1.97;;;1.73;;
12663;SDS011;6396;58.490;15.528;2022-11-20T11:09:32;1.47;;;1.30;;
12663;SDS011;6396;58.490;15.528;2022-11-20T11:12:00;1.60;;;1.23;;
12663;SDS011;6396;58.490;15.528;2022-11-20T11:14:27;1.60;;;1.50;;
12663;SDS011;6396;58.490;15.528;2022-11-20T11:16:55;1.50;;;1.33;;
12663;SDS011;6396;58.490;15.528;2022-11-20T11:19:24;1.70;;;1.50;;
12663;SDS011;6396;58.490;15.528;2022-11-20T11:21:52;1.33;;;1.23;;
12663;SDS011;6396;58.490;15.528;2022-11-20T11:24:22;1.57;;;1.47;;
12663;SDS011;6396;58.490;15.528;2022-11-20T11:26:51;1.40;;;1.30;;
12663;SDS011;6396;58.490;15.528;2022-11-20T11:29:20;1.83;;;1.40;;
12663;SDS011;6396;58.490;15.528;2022-11-20T11:31:47;1.40;;;1.30;;
12663;SDS011;6396;58.490;15.528;2022-11-20T11:34:15;1.63;;;1.47;;
12663;SDS011;6396;58.490;15.528;2022-11-20T11:36:49;1.60;;;1.50;;
12663;SDS011;6396;58.490;15.528;2022-11-20T11:39:21;1.57;;;1.40;;
12663;SDS011;6396;58.490;15.528;2022-11-20T11:41:50;1.47;;;1.37;;
12663;SDS011;6396;58.490;15.528;2022-11-20T11:44:18;1.30;;;1.20;;
12663;SDS011;6396;58.490;15.528;2022-11-20T11:47:04;2.27;;;1.30;;
12663;SDS011;6396;58.490;15.528;2022-11-20T11:49:36;1.60;;;1.40;;
12663;SDS011;6396;58.490;15.528;2022-11-20T11:52:05;1.43;;;1.20;;
12663;SDS011;6396;58.490;15.528;2022-11-20T11:54:41;1.57;;;1.40;;
12663;SDS011;6396;58.490;15.528;2022-11-20T11:57:14;1.87;;;1.30;;
12663;SDS011;6396;58.490;15.528;2022-11-20T11:59:51;1.50;;;1.40;;
12663;SDS011;6396;58.490;15.528;2022-11-20T12:02:27;1.57;;;1.40;;
12663;SDS011;6396;58.490;15.528;2022-11-20T12:04:59;1.33;;;1.20;;
12663;SDS011;6396;58.490;15.528;2022-11-20T12:07:35;1.40;;;1.30;;
12663;SDS011;6396;58.490;15.528;2022-11-20T12:10:13;2.43;;;1.43;;
12663;SDS011;6396;58.490;15.528;2022-11-20T12:12:46;2.20;;;1.60;;
12663;SDS011;6396;58.490;15.528;2022-11-20T12:15:22;1.33;;;1.10;;
12663;SDS011;6396;58.490;15.528;2022-11-20T12:17:56;1.50;;;1.40;;
12663;SDS011;6396;58.490;15.528;2022-11-20T12:20:24;1.30;;;1.20;;
12663;SDS011;6396;58.490;15.528;2022-11-20T12:22:58;1.30;;;1.20;;
12663;SDS011;6396;58.490;15.528;2022-11-20T12:25:30;1.10;;;1.10;;
12663;SDS011;6396;58.490;15.528;2022-11-20T12:28:12;1.40;;;1.30;;
12663;SDS011;6396;58.490;15.528;2022-11-20T12:30:53;1.53;;;1.27;;
12663;SDS011;6396;58.490;15.528;2022-11-20T12:33:38;1.20;;;1.10;;
12663;SDS011;6396;58.490;15.528;2022-11-20T12:36:19;1.57;;;1.30;;
12663;SDS011;6396;58.490;15.528;2022-11-20T12:41:51;1.30;;;1.20;;
12663;SDS011;6396;58.490;15.528;2022-11-20T12:45:00;1.20;;;1.10;;
12663;SDS011;6396;58.490;15.528;2022-11-20T12:47:51;1.23;;;1.13;;
12663;SDS011;6396;58.490;15.528;2022-11-20T12:50:36;1.70;;;1.43;;
12663;SDS011;6396;58.490;15.528;2022-11-20T12:53:16;1.57;;;1.30;;
12663;SDS011;6396;58.490;15.528;2022-11-20T12:55:56;1.67;;;1.30;;
12663;SDS011;6396;58.490;15.528;2022-11-20T12:58:31;1.27;;;1.13;;
12663;SDS011;6396;58.490;15.528;2022-11-20T13:01:08;1.80;;;1.43;;
12663;SDS011;6396;58.490;15.528;2022-11-20T13:04:07;1.93;;;1.50;;
12663;SDS011;6396;58.490;15.528;2022-11-20T13:06:39;3.13;;;1.40;;
12663;SDS011;6396;58.490;15.528;2022-11-20T13:09:08;1.43;;;1.30;;
12663;SDS011;6396;58.490;15.528;2022-11-20T13:11:41;2.23;;;1.30;;
12663;SDS011;6396;58.490;15.528;2022-11-20T13:14:16;1.63;;;1.30;;
12663;SDS011;6396;58.490;15.528;2022-11-20T13:16:53;1.20;;;1.10;;
12663;SDS011;6396;58.490;15.528;2022-11-20T13:19:24;1.20;;;1.10;;
12663;SDS011;6396;58.490;15.528;2022-11-20T13:21:53;1.30;;;1.20;;
12663;SDS011;6396;58.490;15.528;2022-11-20T13:24:21;1.20;;;1.10;;
12663;SDS011;6396;58.490;15.528;2022-11-20T13:27:02;1.33;;;1.20;;
12663;SDS011;6396;58.490;15.528;2022-11-20T13:29:31;1.40;;;1.30;;
12663;SDS011;6396;58.490;15.528;2022-11-20T13:32:03;1.20;;;1.03;;
12663;SDS011;6396;58.490;15.528;2022-11-20T13:34:32;1.30;;;1.20;;
12663;SDS011;6396;58.490;15.528;2022-11-20T13:37:00;2.17;;;1.20;;
12663;SDS011;6396;58.490;15.528;2022-11-20T13:39:29;1.90;;;1.20;;
12663;SDS011;6396;58.490;15.528;2022-11-20T13:41:57;1.83;;;1.10;;
12663;SDS011;6396;58.490;15.528;2022-11-20T13:44:29;1.20;;;1.10;;
12663;SDS011;6396;58.490;15.528;2022-11-20T13:46:59;1.10;;;1.00;;
12663;SDS011;6396;58.490;15.528;2022-11-20T13:49:27;1.20;;;1.10;;
12663;SDS011;6396;58.490;15.528;2022-11-20T13:52:01;1.20;;;1.10;;
12663;SDS011;6396;58.490;15.528;2022-11-20T13:54:50;1.90;;;1.10;;
12663;SDS011;6396;58.490;15.528;2022-11-20T13:57:30;1.00;;;1.00;;
12663;SDS011;6396;58.490;15.528;2022-11-20T14:00:18;1.27;;;1.17;;
12663;SDS011;6396;58.490;15.528;2022-11-20T14:02:50;1.20;;;1.10;;
12663;SDS011;6396;58.490;15.528;2022-11-20T14:05:27;1.43;;;1.10;;
12663;SDS011;6396;58.490;15.528;2022-11-20T14:07:58;2.00;;;1.23;;
12663;SDS011;6396;58.490;15.528;2022-11-20T14:10:25;1.17;;;1.07;;
12663;SDS011;6396;58.490;15.528;2022-11-20T14:12:54;1.20;;;1.10;;
12663;SDS011;6396;58.490;15.528;2022-11-20T14:15:27;1.10;;;0.90;;
12663;SDS011;6396;58.490;15.528;2022-11-20T14:17:55;1.37;;;1.13;;
12663;SDS011;6396;58.490;15.528;2022-11-20T14:20:23;1.20;;;1.10;;
12663;SDS011;6396;58.490;15.528;2022-11-20T14:22:52;1.13;;;1.03;;
12663;SDS011;6396;58.490;15.528;2022-11-20T14:25:21;1.67;;;1.30;;
12663;SDS011;6396;58.490;15.528;2022-11-20T14:27:55;1.27;;;1.10;;
12663;SDS011;6396;58.490;15.528;2022-11-20T14:30:26;1.10;;;1.00;;
12663;SDS011;6396;58.490;15.528;2022-11-20T14:33:00;1.13;;;1.10;;
12663;SDS011;6396;58.490;15.528;2022-11-20T14:35:34;1.17;;;0.90;;
12663;SDS011;6396;58.490;15.528;2022-11-20T14:38:14;1.13;;;1.03;;
12663;SDS011;6396;58.490;15.528;2022-11-20T14:40:42;1.60;;;1.07;;
12663;SDS011;6396;58.490;15.528;2022-11-20T14:43:17;1.23;;;1.07;;
12663;SDS011;6396;58.490;15.528;2022-11-20T14:45:48;0.90;;;0.90;;
12663;SDS011;6396;58.490;15.528;2022-11-20T14:48:23;1.57;;;1.10;;
12663;SDS011;6396;58.490;15.528;2022-11-20T14:50:55;1.83;;;0.90;;
12663;SDS011;6396;58.490;15.528;2022-11-20T14:53:22;1.23;;;1.13;;
12663;SDS011;6396;58.490;15.528;2022-11-20T14:55:54;2.00;;;1.20;;
12663;SDS011;6396;58.490;15.528;2022-11-20T14:58:24;1.23;;;1.10;;
12663;SDS011;6396;58.490;15.528;2022-11-20T15:00:57;1.20;;;1.07;;
12663;SDS011;6396;58.490;15.528;2022-11-20T15:03:30;1.10;;;1.00;;
12663;SDS011;6396;58.490;15.528;2022-11-20T15:05:58;1.10;;;0.97;;
12663;SDS011;6396;58.490;15.528;2022-11-20T15:08:26;0.97;;;0.90;;
12663;SDS011;6396;58.490;15.528;2022-11-20T15:10:53;1.00;;;1.00;;
12663;SDS011;6396;58.490;15.528;2022-11-20T15:13:24;1.47;;;1.20;;
12663;SDS011;6396;58.490;15.528;2022-11-20T15:15:57;1.10;;;1.00;;